sensor_id;sensor_type;location;lat;lon;timestamp;P1;durP1;ratioP1;P2;durP2;ratioP2
21110;SDS011;10713;51.912;4.494;2022-09-09T00:01:19;16.75;;;8.25;;
21110;SDS011;10713;51.912;4.494;2022-09-09T00:09:28;16.15;;;7.78;;
21110;SDS011;10713;51.912;4.494;2022-09-09T00:12:02;15.95;;;8.80;;
21110;SDS011;10713;51.912;4.494;2022-09-09T00:14:51;18.52;;;8.75;;
21110;SDS011;10713;51.912;4.494;2022-09-09T00:22:51;13.15;;;8.10;;
21110;SDS011;10713;51.912;4.494;2022-09-09T00:25:27;12.70;;;7.43;;
21110;SDS011;10713;51.912;4.494;2022-09-09T00:27:59;12.55;;;8.27;;
21110;SDS011;10713;51.912;4.494;2022-09-09T00:30:26;15.85;;;8.52;;
21110;SDS011;10713;51.912;4.494;2022-09-09T00:33:00;16.75;;;8.50;;
21110;SDS011;10713;51.912;4.494;2022-09-09T00:35:37;14.98;;;8.27;;
21110;SDS011;10713;51.912;4.494;2022-09-09T00:38:15;19.52;;;9.73;;
21110;SDS011;10713;51.912;4.494;2022-09-09T00:40:49;14.93;;;8.40;;
21110;SDS011;10713;51.912;4.494;2022-09-09T00:43:25;15.07;;;8.18;;
21110;SDS011;10713;51.912;4.494;2022-09-09T00:56:36;15.55;;;8.25;;
21110;SDS011;10713;51.912;4.494;2022-09-09T01:01:35;14.18;;;8.05;;
21110;SDS011;10713;51.912;4.494;2022-09-09T01:04:00;15.60;;;7.63;;
21110;SDS011;10713;51.912;4.494;2022-09-09T01:06:35;10.00;;;6.13;;
21110;SDS011;10713;51.912;4.494;2022-09-09T01:09:22;17.85;;;7.03;;
21110;SDS011;10713;51.912;4.494;2022-09-09T01:12:02;10.63;;;6.55;;
21110;SDS011;10713;51.912;4.494;2022-09-09T01:17:04;13.17;;;6.20;;
21110;SDS011;10713;51.912;4.494;2022-09-09T01:28:21;7.25;;;4.18;;
21110;SDS011;10713;51.912;4.494;2022-09-09T01:30:50;8.80;;;3.90;;
21110;SDS011;10713;51.912;4.494;2022-09-09T01:33:17;8.82;;;4.03;;
21110;SDS011;10713;51.912;4.494;2022-09-09T01:35:45;7.13;;;3.60;;
21110;SDS011;10713;51.912;4.494;2022-09-09T01:38:15;9.98;;;3.95;;
21110;SDS011;10713;51.912;4.494;2022-09-09T01:40:42;11.80;;;3.38;;
21110;SDS011;10713;51.912;4.494;2022-09-09T01:43:08;5.47;;;2.78;;
21110;SDS011;10713;51.912;4.494;2022-09-09T01:45:34;7.22;;;3.05;;
21110;SDS011;10713;51.912;4.494;2022-09-09T01:48:00;7.15;;;3.15;;
21110;SDS011;10713;51.912;4.494;2022-09-09T01:50:27;6.93;;;3.35;;
21110;SDS011;10713;51.912;4.494;2022-09-09T01:52:54;5.43;;;3.30;;
21110;SDS011;10713;51.912;4.494;2022-09-09T01:55:30;5.68;;;3.20;;
21110;SDS011;10713;51.912;4.494;2022-09-09T02:00:23;9.05;;;3.92;;
21110;SDS011;10713;51.912;4.494;2022-09-09T02:08:06;8.15;;;4.25;;
21110;SDS011;10713;51.912;4.494;2022-09-09T02:10:39;11.07;;;4.22;;
21110;SDS011;10713;51.912;4.494;2022-09-09T02:13:19;9.45;;;4.15;;
21110;SDS011;10713;51.912;4.494;2022-09-09T02:15:52;10.25;;;4.32;;
21110;SDS011;10713;51.912;4.494;2022-09-09T02:18:24;15.23;;;4.43;;
21110;SDS011;10713;51.912;4.494;2022-09-09T02:21:04;11.32;;;4.55;;
21110;SDS011;10713;51.912;4.494;2022-09-09T02:23:31;9.25;;;4.55;;
21110;SDS011;10713;51.912;4.494;2022-09-09T02:25:58;12.05;;;5.50;;
21110;SDS011;10713;51.912;4.494;2022-09-09T02:28:25;10.10;;;4.47;;
21110;SDS011;10713;51.912;4.494;2022-09-09T02:30:52;12.77;;;4.82;;
21110;SDS011;10713;51.912;4.494;2022-09-09T02:33:21;10.25;;;5.10;;
21110;SDS011;10713;51.912;4.494;2022-09-09T02:35:50;11.02;;;4.72;;
21110;SDS011;10713;51.912;4.494;2022-09-09T02:38:16;9.20;;;4.82;;
21110;SDS011;10713;51.912;4.494;2022-09-09T02:40:42;8.95;;;4.50;;
21110;SDS011;10713;51.912;4.494;2022-09-09T02:43:07;8.05;;;4.10;;
21110;SDS011;10713;51.912;4.494;2022-09-09T02:45:38;15.93;;;4.50;;
21110;SDS011;10713;51.912;4.494;2022-09-09T02:53:23;8.85;;;4.18;;
21110;SDS011;10713;51.912;4.494;2022-09-09T02:56:03;12.02;;;4.88;;
21110;SDS011;10713;51.912;4.494;2022-09-09T02:58:30;12.52;;;4.63;;
21110;SDS011;10713;51.912;4.494;2022-09-09T03:00:56;10.38;;;4.18;;
21110;SDS011;10713;51.912;4.494;2022-09-09T03:03:23;12.05;;;4.05;;
21110;SDS011;10713;51.912;4.494;2022-09-09T03:05:49;10.48;;;3.95;;
21110;SDS011;10713;51.912;4.494;2022-09-09T03:08:15;8.90;;;3.80;;
21110;SDS011;10713;51.912;4.494;2022-09-09T03:10:40;9.18;;;4.00;;
21110;SDS011;10713;51.912;4.494;2022-09-09T03:13:06;8.95;;;3.67;;
21110;SDS011;10713;51.912;4.494;2022-09-09T03:15:32;10.18;;;3.83;;
21110;SDS011;10713;51.912;4.494;2022-09-09T03:17:59;9.48;;;3.70;;
21110;SDS011;10713;51.912;4.494;2022-09-09T03:20:26;10.77;;;3.53;;
21110;SDS011;10713;51.912;4.494;2022-09-09T03:22:53;10.52;;;3.70;;
21110;SDS011;10713;51.912;4.494;2022-09-09T03:25:18;10.80;;;3.65;;
21110;SDS011;10713;51.912;4.494;2022-09-09T03:27:44;6.93;;;3.45;;
21110;SDS011;10713;51.912;4.494;2022-09-09T03:30:09;10.00;;;3.50;;
21110;SDS011;10713;51.912;4.494;2022-09-09T03:32:36;10.65;;;3.50;;
21110;SDS011;10713;51.912;4.494;2022-09-09T03:35:01;9.60;;;3.22;;
21110;SDS011;10713;51.912;4.494;2022-09-09T03:37:27;11.35;;;4.00;;
21110;SDS011;10713;51.912;4.494;2022-09-09T03:39:52;6.97;;;3.00;;
21110;SDS011;10713;51.912;4.494;2022-09-09T03:42:19;8.23;;;3.35;;
21110;SDS011;10713;51.912;4.494;2022-09-09T03:44:45;8.30;;;3.08;;
21110;SDS011;10713;51.912;4.494;2022-09-09T03:47:24;9.32;;;3.50;;
21110;SDS011;10713;51.912;4.494;2022-09-09T03:49:50;9.95;;;3.40;;
21110;SDS011;10713;51.912;4.494;2022-09-09T03:52:15;5.80;;;3.08;;
21110;SDS011;10713;51.912;4.494;2022-09-09T03:54:41;11.38;;;3.83;;
21110;SDS011;10713;51.912;4.494;2022-09-09T03:57:07;6.03;;;2.40;;
21110;SDS011;10713;51.912;4.494;2022-09-09T03:59:34;7.97;;;3.33;;
21110;SDS011;10713;51.912;4.494;2022-09-09T04:02:00;7.95;;;3.28;;
21110;SDS011;10713;51.912;4.494;2022-09-09T04:04:25;8.23;;;3.47;;
21110;SDS011;10713;51.912;4.494;2022-09-09T04:06:53;8.18;;;3.22;;
21110;SDS011;10713;51.912;4.494;2022-09-09T04:09:19;9.18;;;3.72;;
21110;SDS011;10713;51.912;4.494;2022-09-09T04:11:44;8.23;;;3.60;;
21110;SDS011;10713;51.912;4.494;2022-09-09T04:14:11;9.10;;;3.60;;
21110;SDS011;10713;51.912;4.494;2022-09-09T04:16:37;8.15;;;3.15;;
21110;SDS011;10713;51.912;4.494;2022-09-09T04:19:03;7.70;;;3.13;;
21110;SDS011;10713;51.912;4.494;2022-09-09T04:21:30;6.40;;;2.78;;
21110;SDS011;10713;51.912;4.494;2022-09-09T04:23:55;8.63;;;3.10;;
21110;SDS011;10713;51.912;4.494;2022-09-09T04:26:21;10.18;;;3.38;;
21110;SDS011;10713;51.912;4.494;2022-09-09T04:28:47;8.82;;;3.10;;
21110;SDS011;10713;51.912;4.494;2022-09-09T04:31:15;10.55;;;3.53;;
21110;SDS011;10713;51.912;4.494;2022-09-09T04:33:46;8.73;;;3.42;;
21110;SDS011;10713;51.912;4.494;2022-09-09T04:36:12;9.93;;;3.25;;
21110;SDS011;10713;51.912;4.494;2022-09-09T04:38:38;13.50;;;3.90;;
21110;SDS011;10713;51.912;4.494;2022-09-09T04:41:04;10.82;;;4.13;;
21110;SDS011;10713;51.912;4.494;2022-09-09T04:43:29;11.45;;;3.80;;
21110;SDS011;10713;51.912;4.494;2022-09-09T04:45:55;7.75;;;3.58;;
21110;SDS011;10713;51.912;4.494;2022-09-09T04:48:21;12.60;;;3.95;;
21110;SDS011;10713;51.912;4.494;2022-09-09T04:51:00;16.58;;;3.65;;
21110;SDS011;10713;51.912;4.494;2022-09-09T04:53:30;10.73;;;3.83;;
21110;SDS011;10713;51.912;4.494;2022-09-09T04:56:02;12.32;;;3.92;;
21110;SDS011;10713;51.912;4.494;2022-09-09T04:58:28;7.57;;;3.40;;
21110;SDS011;10713;51.912;4.494;2022-09-09T05:00:54;10.43;;;4.22;;
21110;SDS011;10713;51.912;4.494;2022-09-09T05:03:19;9.98;;;3.95;;
21110;SDS011;10713;51.912;4.494;2022-09-09T05:05:44;12.50;;;3.85;;
21110;SDS011;10713;51.912;4.494;2022-09-09T05:08:10;6.90;;;3.17;;
21110;SDS011;10713;51.912;4.494;2022-09-09T05:10:36;12.05;;;4.45;;
21110;SDS011;10713;51.912;4.494;2022-09-09T05:13:03;6.82;;;3.20;;
21110;SDS011;10713;51.912;4.494;2022-09-09T05:15:29;9.63;;;3.90;;
21110;SDS011;10713;51.912;4.494;2022-09-09T05:17:58;7.43;;;2.92;;
21110;SDS011;10713;51.912;4.494;2022-09-09T05:20:25;13.25;;;3.92;;
21110;SDS011;10713;51.912;4.494;2022-09-09T05:22:54;7.30;;;3.47;;
21110;SDS011;10713;51.912;4.494;2022-09-09T05:25:21;11.98;;;3.47;;
21110;SDS011;10713;51.912;4.494;2022-09-09T05:27:47;12.05;;;4.05;;
21110;SDS011;10713;51.912;4.494;2022-09-09T05:30:13;10.13;;;2.78;;
21110;SDS011;10713;51.912;4.494;2022-09-09T05:32:38;11.05;;;3.45;;
21110;SDS011;10713;51.912;4.494;2022-09-09T05:35:05;11.18;;;4.22;;
21110;SDS011;10713;51.912;4.494;2022-09-09T05:37:31;7.68;;;3.28;;
21110;SDS011;10713;51.912;4.494;2022-09-09T05:39:56;8.90;;;3.17;;
21110;SDS011;10713;51.912;4.494;2022-09-09T05:42:23;9.35;;;3.05;;
21110;SDS011;10713;51.912;4.494;2022-09-09T05:44:48;10.70;;;3.60;;
21110;SDS011;10713;51.912;4.494;2022-09-09T05:47:15;9.45;;;3.40;;
21110;SDS011;10713;51.912;4.494;2022-09-09T05:49:40;9.00;;;2.47;;
21110;SDS011;10713;51.912;4.494;2022-09-09T05:52:05;5.45;;;2.58;;
21110;SDS011;10713;51.912;4.494;2022-09-09T05:54:31;14.30;;;3.03;;
21110;SDS011;10713;51.912;4.494;2022-09-09T05:56:57;5.68;;;2.30;;
21110;SDS011;10713;51.912;4.494;2022-09-09T05:59:23;6.43;;;2.70;;
21110;SDS011;10713;51.912;4.494;2022-09-09T06:01:48;8.95;;;2.55;;
21110;SDS011;10713;51.912;4.494;2022-09-09T06:04:14;10.45;;;3.00;;
21110;SDS011;10713;51.912;4.494;2022-09-09T06:06:40;9.70;;;3.40;;
21110;SDS011;10713;51.912;4.494;2022-09-09T06:09:07;10.70;;;2.88;;
21110;SDS011;10713;51.912;4.494;2022-09-09T06:11:35;9.35;;;3.03;;
21110;SDS011;10713;51.912;4.494;2022-09-09T06:14:02;9.02;;;2.83;;
21110;SDS011;10713;51.912;4.494;2022-09-09T06:16:29;15.82;;;2.80;;
21110;SDS011;10713;51.912;4.494;2022-09-09T06:18:57;8.68;;;3.00;;
21110;SDS011;10713;51.912;4.494;2022-09-09T06:21:24;10.43;;;2.88;;
21110;SDS011;10713;51.912;4.494;2022-09-09T06:23:55;10.93;;;3.25;;
21110;SDS011;10713;51.912;4.494;2022-09-09T06:26:30;13.60;;;3.67;;
21110;SDS011;10713;51.912;4.494;2022-09-09T06:28:58;4.30;;;2.22;;
21110;SDS011;10713;51.912;4.494;2022-09-09T06:31:25;9.73;;;3.10;;
21110;SDS011;10713;51.912;4.494;2022-09-09T06:33:55;10.23;;;2.95;;
21110;SDS011;10713;51.912;4.494;2022-09-09T06:36:32;9.05;;;3.10;;
21110;SDS011;10713;51.912;4.494;2022-09-09T06:38:59;9.20;;;2.55;;
21110;SDS011;10713;51.912;4.494;2022-09-09T06:41:26;9.82;;;3.17;;
21110;SDS011;10713;51.912;4.494;2022-09-09T06:43:52;11.10;;;3.50;;
21110;SDS011;10713;51.912;4.494;2022-09-09T06:46:18;9.95;;;3.28;;
21110;SDS011;10713;51.912;4.494;2022-09-09T06:48:45;7.72;;;2.95;;
21110;SDS011;10713;51.912;4.494;2022-09-09T06:51:15;13.05;;;3.45;;
21110;SDS011;10713;51.912;4.494;2022-09-09T06:53:43;7.30;;;3.22;;
21110;SDS011;10713;51.912;4.494;2022-09-09T06:58:34;10.83;;;3.40;;
21110;SDS011;10713;51.912;4.494;2022-09-09T07:01:08;12.32;;;4.47;;
21110;SDS011;10713;51.912;4.494;2022-09-09T07:03:33;11.85;;;4.22;;
21110;SDS011;10713;51.912;4.494;2022-09-09T07:05:59;11.35;;;4.25;;
21110;SDS011;10713;51.912;4.494;2022-09-09T07:08:25;14.63;;;4.85;;
21110;SDS011;10713;51.912;4.494;2022-09-09T07:10:51;13.15;;;4.55;;
21110;SDS011;10713;51.912;4.494;2022-09-09T07:13:19;11.05;;;4.55;;
21110;SDS011;10713;51.912;4.494;2022-09-09T07:15:50;10.63;;;4.70;;
21110;SDS011;10713;51.912;4.494;2022-09-09T07:18:16;11.57;;;4.38;;
21110;SDS011;10713;51.912;4.494;2022-09-09T07:20:41;10.38;;;4.38;;
21110;SDS011;10713;51.912;4.494;2022-09-09T07:23:06;9.73;;;4.63;;
21110;SDS011;10713;51.912;4.494;2022-09-09T07:25:32;9.63;;;4.80;;
21110;SDS011;10713;51.912;4.494;2022-09-09T07:27:57;11.32;;;4.35;;
21110;SDS011;10713;51.912;4.494;2022-09-09T07:30:23;13.30;;;4.55;;
21110;SDS011;10713;51.912;4.494;2022-09-09T07:32:50;12.50;;;4.50;;
21110;SDS011;10713;51.912;4.494;2022-09-09T07:35:16;14.18;;;5.38;;
21110;SDS011;10713;51.912;4.494;2022-09-09T07:37:41;8.98;;;4.45;;
21110;SDS011;10713;51.912;4.494;2022-09-09T07:40:07;14.80;;;5.00;;
21110;SDS011;10713;51.912;4.494;2022-09-09T07:42:33;10.02;;;4.13;;
21110;SDS011;10713;51.912;4.494;2022-09-09T07:44:58;14.05;;;4.80;;
21110;SDS011;10713;51.912;4.494;2022-09-09T07:47:24;16.75;;;4.78;;
21110;SDS011;10713;51.912;4.494;2022-09-09T07:49:49;10.63;;;4.72;;
21110;SDS011;10713;51.912;4.494;2022-09-09T07:52:15;7.45;;;3.45;;
21110;SDS011;10713;51.912;4.494;2022-09-09T07:54:41;13.80;;;4.43;;
21110;SDS011;10713;51.912;4.494;2022-09-09T07:57:06;13.27;;;4.28;;
21110;SDS011;10713;51.912;4.494;2022-09-09T07:59:32;11.55;;;4.15;;
21110;SDS011;10713;51.912;4.494;2022-09-09T08:01:58;12.50;;;4.18;;
21110;SDS011;10713;51.912;4.494;2022-09-09T08:04:24;10.50;;;4.07;;
21110;SDS011;10713;51.912;4.494;2022-09-09T08:06:56;8.73;;;4.13;;
21110;SDS011;10713;51.912;4.494;2022-09-09T08:09:23;12.20;;;4.30;;
21110;SDS011;10713;51.912;4.494;2022-09-09T08:11:52;11.80;;;4.80;;
21110;SDS011;10713;51.912;4.494;2022-09-09T08:14:17;11.20;;;4.82;;
21110;SDS011;10713;51.912;4.494;2022-09-09T08:16:43;9.93;;;4.80;;
21110;SDS011;10713;51.912;4.494;2022-09-09T08:19:10;18.08;;;5.38;;
21110;SDS011;10713;51.912;4.494;2022-09-09T08:21:37;9.85;;;4.05;;
21110;SDS011;10713;51.912;4.494;2022-09-09T08:24:05;10.18;;;4.60;;
21110;SDS011;10713;51.912;4.494;2022-09-09T08:26:32;9.38;;;4.60;;
21110;SDS011;10713;51.912;4.494;2022-09-09T08:29:03;11.57;;;4.90;;
21110;SDS011;10713;51.912;4.494;2022-09-09T08:31:31;10.60;;;4.50;;
21110;SDS011;10713;51.912;4.494;2022-09-09T08:34:04;6.93;;;4.40;;
21110;SDS011;10713;51.912;4.494;2022-09-09T08:36:32;13.02;;;5.63;;
21110;SDS011;10713;51.912;4.494;2022-09-09T08:39:00;11.30;;;4.65;;
21110;SDS011;10713;51.912;4.494;2022-09-09T08:52:15;13.50;;;4.43;;
21110;SDS011;10713;51.912;4.494;2022-09-09T08:54:44;12.45;;;4.63;;
21110;SDS011;10713;51.912;4.494;2022-09-09T08:57:16;10.30;;;4.97;;
21110;SDS011;10713;51.912;4.494;2022-09-09T08:59:46;10.90;;;4.93;;
21110;SDS011;10713;51.912;4.494;2022-09-09T09:02:17;8.52;;;3.70;;
21110;SDS011;10713;51.912;4.494;2022-09-09T09:10:54;8.35;;;3.35;;
21110;SDS011;10713;51.912;4.494;2022-09-09T09:18:58;6.10;;;3.70;;
21110;SDS011;10713;51.912;4.494;2022-09-09T09:24:05;10.93;;;4.30;;
21110;SDS011;10713;51.912;4.494;2022-09-09T09:26:40;8.70;;;4.13;;
21110;SDS011;10713;51.912;4.494;2022-09-09T09:29:10;13.20;;;5.07;;
21110;SDS011;10713;51.912;4.494;2022-09-09T09:31:51;12.25;;;5.10;;
21110;SDS011;10713;51.912;4.494;2022-09-09T09:34:19;10.27;;;4.32;;
21110;SDS011;10713;51.912;4.494;2022-09-09T09:36:46;10.55;;;4.63;;
21110;SDS011;10713;51.912;4.494;2022-09-09T09:39:28;10.05;;;4.15;;
21110;SDS011;10713;51.912;4.494;2022-09-09T09:41:55;11.13;;;4.85;;
21110;SDS011;10713;51.912;4.494;2022-09-09T09:44:24;11.57;;;4.60;;
21110;SDS011;10713;51.912;4.494;2022-09-09T09:46:50;16.08;;;5.90;;
21110;SDS011;10713;51.912;4.494;2022-09-09T09:49:15;8.48;;;3.83;;
21110;SDS011;10713;51.912;4.494;2022-09-09T09:51:42;7.68;;;4.05;;
21110;SDS011;10713;51.912;4.494;2022-09-09T09:54:14;16.95;;;4.38;;
21110;SDS011;10713;51.912;4.494;2022-09-09T09:56:48;17.42;;;4.95;;
21110;SDS011;10713;51.912;4.494;2022-09-09T10:01:54;14.18;;;4.05;;
21110;SDS011;10713;51.912;4.494;2022-09-09T10:04:20;10.38;;;4.53;;
21110;SDS011;10713;51.912;4.494;2022-09-09T10:06:48;16.35;;;5.60;;
21110;SDS011;10713;51.912;4.494;2022-09-09T10:09:32;12.48;;;4.57;;
21110;SDS011;10713;51.912;4.494;2022-09-09T10:18:00;10.48;;;4.97;;
21110;SDS011;10713;51.912;4.494;2022-09-09T10:34:47;10.93;;;4.90;;
21110;SDS011;10713;51.912;4.494;2022-09-09T10:39:54;62.70;;;12.07;;
21110;SDS011;10713;51.912;4.494;2022-09-09T10:42:43;15.90;;;4.80;;
21110;SDS011;10713;51.912;4.494;2022-09-09T10:47:56;8.30;;;3.97;;
21110;SDS011;10713;51.912;4.494;2022-09-09T10:50:29;8.07;;;4.60;;
21110;SDS011;10713;51.912;4.494;2022-09-09T10:55:52;16.00;;;5.75;;
21110;SDS011;10713;51.912;4.494;2022-09-09T10:58:25;10.65;;;5.38;;
21110;SDS011;10713;51.912;4.494;2022-09-09T11:00:59;19.50;;;6.63;;
21110;SDS011;10713;51.912;4.494;2022-09-09T11:03:29;12.88;;;5.35;;
21110;SDS011;10713;51.912;4.494;2022-09-09T11:08:29;8.23;;;4.68;;
21110;SDS011;10713;51.912;4.494;2022-09-09T11:13:53;19.45;;;4.97;;
21110;SDS011;10713;51.912;4.494;2022-09-09T11:16:33;9.88;;;5.35;;
21110;SDS011;10713;51.912;4.494;2022-09-09T11:21:49;9.68;;;4.35;;
21110;SDS011;10713;51.912;4.494;2022-09-09T11:24:36;10.43;;;4.78;;
21110;SDS011;10713;51.912;4.494;2022-09-09T11:27:24;11.68;;;4.50;;
21110;SDS011;10713;51.912;4.494;2022-09-09T11:38:50;10.10;;;4.47;;
21110;SDS011;10713;51.912;4.494;2022-09-09T11:41:17;12.73;;;4.55;;
21110;SDS011;10713;51.912;4.494;2022-09-09T11:46:17;13.68;;;5.20;;
21110;SDS011;10713;51.912;4.494;2022-09-09T11:48:45;15.10;;;4.82;;
21110;SDS011;10713;51.912;4.494;2022-09-09T11:56:24;13.45;;;5.88;;
21110;SDS011;10713;51.912;4.494;2022-09-09T12:04:28;14.30;;;6.20;;
21110;SDS011;10713;51.912;4.494;2022-09-09T12:06:56;16.23;;;6.55;;
21110;SDS011;10713;51.912;4.494;2022-09-09T12:09:43;14.07;;;5.55;;
21110;SDS011;10713;51.912;4.494;2022-09-09T12:17:29;21.98;;;7.35;;
21110;SDS011;10713;51.912;4.494;2022-09-09T12:20:03;13.02;;;5.53;;
21110;SDS011;10713;51.912;4.494;2022-09-09T12:31:14;12.15;;;5.55;;
21110;SDS011;10713;51.912;4.494;2022-09-09T12:33:47;12.95;;;6.03;;
21110;SDS011;10713;51.912;4.494;2022-09-09T12:36:24;21.35;;;8.38;;
21110;SDS011;10713;51.912;4.494;2022-09-09T12:38:55;13.52;;;6.10;;
21110;SDS011;10713;51.912;4.494;2022-09-09T12:41:25;12.05;;;5.43;;
21110;SDS011;10713;51.912;4.494;2022-09-09T12:44:03;20.67;;;6.75;;
21110;SDS011;10713;51.912;4.494;2022-09-09T12:46:43;14.43;;;6.05;;
21110;SDS011;10713;51.912;4.494;2022-09-09T12:51:48;11.70;;;5.43;;
21110;SDS011;10713;51.912;4.494;2022-09-09T12:54:14;10.05;;;5.30;;
21110;SDS011;10713;51.912;4.494;2022-09-09T12:56:40;9.27;;;5.57;;
21110;SDS011;10713;51.912;4.494;2022-09-09T12:59:22;12.77;;;5.10;;
21110;SDS011;10713;51.912;4.494;2022-09-09T13:01:55;8.93;;;3.75;;
21110;SDS011;10713;51.912;4.494;2022-09-09T13:04:23;6.50;;;3.50;;
21110;SDS011;10713;51.912;4.494;2022-09-09T13:06:49;15.23;;;4.20;;
21110;SDS011;10713;51.912;4.494;2022-09-09T13:09:14;7.53;;;3.10;;
21110;SDS011;10713;51.912;4.494;2022-09-09T13:11:44;8.10;;;3.85;;
21110;SDS011;10713;51.912;4.494;2022-09-09T13:14:18;15.95;;;4.68;;
21110;SDS011;10713;51.912;4.494;2022-09-09T13:16:54;7.90;;;3.78;;
21110;SDS011;10713;51.912;4.494;2022-09-09T13:19:22;9.65;;;3.95;;
21110;SDS011;10713;51.912;4.494;2022-09-09T13:21:50;5.65;;;3.35;;
21110;SDS011;10713;51.912;4.494;2022-09-09T13:24:33;14.77;;;4.13;;
21110;SDS011;10713;51.912;4.494;2022-09-09T13:27:00;12.60;;;3.67;;
21110;SDS011;10713;51.912;4.494;2022-09-09T13:29:29;12.63;;;3.22;;
21110;SDS011;10713;51.912;4.494;2022-09-09T13:32:06;6.32;;;2.83;;
21110;SDS011;10713;51.912;4.494;2022-09-09T13:34:49;7.70;;;3.75;;
21110;SDS011;10713;51.912;4.494;2022-09-09T13:40:01;5.20;;;2.55;;
21110;SDS011;10713;51.912;4.494;2022-09-09T13:42:28;8.63;;;3.70;;
21110;SDS011;10713;51.912;4.494;2022-09-09T13:44:56;8.20;;;3.20;;
21110;SDS011;10713;51.912;4.494;2022-09-09T13:47:28;6.97;;;2.72;;
21110;SDS011;10713;51.912;4.494;2022-09-09T13:49:58;7.65;;;3.28;;
21110;SDS011;10713;51.912;4.494;2022-09-09T13:52:23;6.25;;;3.35;;
21110;SDS011;10713;51.912;4.494;2022-09-09T13:54:52;10.40;;;3.47;;
21110;SDS011;10713;51.912;4.494;2022-09-09T13:57:20;8.43;;;3.55;;
21110;SDS011;10713;51.912;4.494;2022-09-09T13:59:50;9.43;;;3.53;;
21110;SDS011;10713;51.912;4.494;2022-09-09T14:02:17;6.13;;;3.28;;
21110;SDS011;10713;51.912;4.494;2022-09-09T14:04:43;7.20;;;3.60;;
21110;SDS011;10713;51.912;4.494;2022-09-09T14:07:13;6.45;;;2.90;;
21110;SDS011;10713;51.912;4.494;2022-09-09T14:09:40;9.80;;;3.42;;
21110;SDS011;10713;51.912;4.494;2022-09-09T14:12:08;9.82;;;4.13;;
21110;SDS011;10713;51.912;4.494;2022-09-09T14:14:36;13.68;;;4.20;;
21110;SDS011;10713;51.912;4.494;2022-09-09T14:17:01;12.77;;;4.03;;
21110;SDS011;10713;51.912;4.494;2022-09-09T14:19:26;6.72;;;3.28;;
21110;SDS011;10713;51.912;4.494;2022-09-09T14:21:52;17.52;;;4.10;;
21110;SDS011;10713;51.912;4.494;2022-09-09T14:24:17;8.82;;;3.35;;
21110;SDS011;10713;51.912;4.494;2022-09-09T14:26:42;5.72;;;3.10;;
21110;SDS011;10713;51.912;4.494;2022-09-09T14:29:08;9.32;;;3.67;;
21110;SDS011;10713;51.912;4.494;2022-09-09T14:31:33;5.40;;;3.25;;
21110;SDS011;10713;51.912;4.494;2022-09-09T14:33:59;8.43;;;3.00;;
21110;SDS011;10713;51.912;4.494;2022-09-09T14:36:24;8.07;;;2.90;;
21110;SDS011;10713;51.912;4.494;2022-09-09T14:38:50;7.55;;;2.75;;
21110;SDS011;10713;51.912;4.494;2022-09-09T14:41:16;5.88;;;2.13;;
21110;SDS011;10713;51.912;4.494;2022-09-09T14:43:44;10.38;;;2.75;;
21110;SDS011;10713;51.912;4.494;2022-09-09T14:46:11;3.83;;;2.10;;
21110;SDS011;10713;51.912;4.494;2022-09-09T14:48:38;9.98;;;2.60;;
21110;SDS011;10713;51.912;4.494;2022-09-09T14:51:09;9.48;;;2.80;;
21110;SDS011;10713;51.912;4.494;2022-09-09T14:53:37;5.72;;;2.30;;
21110;SDS011;10713;51.912;4.494;2022-09-09T14:56:13;7.15;;;2.35;;
21110;SDS011;10713;51.912;4.494;2022-09-09T14:58:43;7.47;;;2.25;;
21110;SDS011;10713;51.912;4.494;2022-09-09T15:01:11;3.97;;;2.03;;
21110;SDS011;10713;51.912;4.494;2022-09-09T15:03:39;6.97;;;2.47;;
21110;SDS011;10713;51.912;4.494;2022-09-09T15:06:06;4.38;;;1.52;;
21110;SDS011;10713;51.912;4.494;2022-09-09T15:08:33;5.85;;;1.83;;
21110;SDS011;10713;51.912;4.494;2022-09-09T15:11:03;4.38;;;1.52;;
21110;SDS011;10713;51.912;4.494;2022-09-09T15:13:30;7.97;;;2.00;;
21110;SDS011;10713;51.912;4.494;2022-09-09T15:15:55;4.32;;;2.00;;
21110;SDS011;10713;51.912;4.494;2022-09-09T15:18:22;9.68;;;2.40;;
21110;SDS011;10713;51.912;4.494;2022-09-09T15:20:48;6.82;;;2.25;;
21110;SDS011;10713;51.912;4.494;2022-09-09T15:23:13;9.52;;;2.75;;
21110;SDS011;10713;51.912;4.494;2022-09-09T15:25:55;7.15;;;2.50;;
21110;SDS011;10713;51.912;4.494;2022-09-09T15:28:21;11.38;;;3.30;;
21110;SDS011;10713;51.912;4.494;2022-09-09T15:30:48;11.70;;;3.30;;
21110;SDS011;10713;51.912;4.494;2022-09-09T15:33:17;5.60;;;3.20;;
21110;SDS011;10713;51.912;4.494;2022-09-09T15:35:44;10.32;;;3.60;;
21110;SDS011;10713;51.912;4.494;2022-09-09T15:38:09;8.23;;;3.38;;
21110;SDS011;10713;51.912;4.494;2022-09-09T15:40:35;7.07;;;3.58;;
21110;SDS011;10713;51.912;4.494;2022-09-09T15:43:00;10.07;;;4.88;;
21110;SDS011;10713;51.912;4.494;2022-09-09T15:45:27;12.10;;;4.10;;
21110;SDS011;10713;51.912;4.494;2022-09-09T15:47:52;14.15;;;5.20;;
21110;SDS011;10713;51.912;4.494;2022-09-09T15:50:17;11.18;;;4.65;;
21110;SDS011;10713;51.912;4.494;2022-09-09T15:52:43;9.15;;;4.55;;
21110;SDS011;10713;51.912;4.494;2022-09-09T15:55:09;8.98;;;4.70;;
21110;SDS011;10713;51.912;4.494;2022-09-09T15:57:35;9.20;;;4.00;;
21110;SDS011;10713;51.912;4.494;2022-09-09T16:00:01;9.52;;;3.45;;
21110;SDS011;10713;51.912;4.494;2022-09-09T16:02:28;7.28;;;3.50;;
21110;SDS011;10713;51.912;4.494;2022-09-09T16:04:55;7.10;;;3.10;;
21110;SDS011;10713;51.912;4.494;2022-09-09T16:07:22;9.07;;;3.60;;
21110;SDS011;10713;51.912;4.494;2022-09-09T16:09:47;11.68;;;4.22;;
21110;SDS011;10713;51.912;4.494;2022-09-09T16:12:15;12.40;;;4.28;;
21110;SDS011;10713;51.912;4.494;2022-09-09T16:14:41;11.90;;;3.92;;
21110;SDS011;10713;51.912;4.494;2022-09-09T16:17:06;7.70;;;3.63;;
21110;SDS011;10713;51.912;4.494;2022-09-09T16:19:32;16.75;;;4.68;;
21110;SDS011;10713;51.912;4.494;2022-09-09T16:21:59;10.10;;;4.20;;
21110;SDS011;10713;51.912;4.494;2022-09-09T16:24:25;12.57;;;4.70;;
21110;SDS011;10713;51.912;4.494;2022-09-09T16:26:51;8.57;;;3.80;;
21110;SDS011;10713;51.912;4.494;2022-09-09T16:29:19;9.80;;;4.60;;
21110;SDS011;10713;51.912;4.494;2022-09-09T16:31:46;9.82;;;4.47;;
21110;SDS011;10713;51.912;4.494;2022-09-09T16:34:12;9.90;;;3.95;;
21110;SDS011;10713;51.912;4.494;2022-09-09T16:36:38;9.10;;;4.00;;
21110;SDS011;10713;51.912;4.494;2022-09-09T16:39:06;7.75;;;3.60;;
21110;SDS011;10713;51.912;4.494;2022-09-09T16:41:34;8.82;;;3.83;;
21110;SDS011;10713;51.912;4.494;2022-09-09T16:44:01;9.30;;;4.20;;
21110;SDS011;10713;51.912;4.494;2022-09-09T16:46:29;15.65;;;4.63;;
21110;SDS011;10713;51.912;4.494;2022-09-09T16:48:56;10.85;;;4.68;;
21110;SDS011;10713;51.912;4.494;2022-09-09T16:51:32;7.93;;;4.13;;
21110;SDS011;10713;51.912;4.494;2022-09-09T16:54:00;12.63;;;4.50;;
21110;SDS011;10713;51.912;4.494;2022-09-09T16:56:27;7.10;;;4.22;;
21110;SDS011;10713;51.912;4.494;2022-09-09T16:58:58;9.05;;;5.10;;
21110;SDS011;10713;51.912;4.494;2022-09-09T17:01:26;11.27;;;4.55;;
21110;SDS011;10713;51.912;4.494;2022-09-09T17:03:57;6.38;;;4.43;;
21110;SDS011;10713;51.912;4.494;2022-09-09T17:06:26;10.02;;;4.93;;
21110;SDS011;10713;51.912;4.494;2022-09-09T17:08:59;8.68;;;4.78;;
21110;SDS011;10713;51.912;4.494;2022-09-09T17:11:29;8.07;;;4.55;;
21110;SDS011;10713;51.912;4.494;2022-09-09T17:13:55;8.73;;;4.22;;
21110;SDS011;10713;51.912;4.494;2022-09-09T17:16:23;5.93;;;3.40;;
21110;SDS011;10713;51.912;4.494;2022-09-09T17:18:53;9.00;;;4.00;;
21110;SDS011;10713;51.912;4.494;2022-09-09T17:21:20;8.07;;;3.75;;
21110;SDS011;10713;51.912;4.494;2022-09-09T17:23:48;10.85;;;3.63;;
21110;SDS011;10713;51.912;4.494;2022-09-09T17:26:15;8.63;;;3.85;;